sensor_id;sensor_type;location;lat;lon;timestamp;pressure;altitude;pressure_sealevel;temperature
70831;BMP180;58451;51.550;7.208;2023-03-08T00:00:55;99286.60;;;1.00
70831;BMP180;58451;51.550;7.208;2023-03-08T00:02:26;99285.60;;;1.00
70831;BMP180;58451;51.550;7.208;2023-03-08T00:03:59;99283.60;;;1.00
70831;BMP180;58451;51.550;7.208;2023-03-08T00:05:31;99277.80;;;1.00
70831;BMP180;58451;51.550;7.208;2023-03-08T00:07:03;99285.20;;;1.00
70831;BMP180;58451;51.550;7.208;2023-03-08T00:08:35;99284.80;;;1.00
70831;BMP180;58451;51.550;7.208;2023-03-08T00:10:08;99280.40;;;1.00
70831;BMP180;58451;51.550;7.208;2023-03-08T00:11:40;99279.40;;;1.00
70831;BMP180;58451;51.550;7.208;2023-03-08T00:13:12;99280.60;;;1.00
70831;BMP180;58451;51.550;7.208;2023-03-08T00:14:46;99282.00;;;1.00
70831;BMP180;58451;51.550;7.208;2023-03-08T00:16:18;99282.00;;;1.00
70831;BMP180;58451;51.550;7.208;2023-03-08T00:17:50;99284.20;;;1.00
70831;BMP180;58451;51.550;7.208;2023-03-08T00:19:22;99287.20;;;1.00
70831;BMP180;58451;51.550;7.208;2023-03-08T00:21:03;99283.80;;;1.00
70831;BMP180;58451;51.550;7.208;2023-03-08T00:22:40;99290.00;;;1.00
70831;BMP180;58451;51.550;7.208;2023-03-08T00:24:12;99285.80;;;1.00
70831;BMP180;58451;51.550;7.208;2023-03-08T00:25:51;99281.00;;;1.00
70831;BMP180;58451;51.550;7.208;2023-03-08T00:27:23;99275.40;;;1.00
70831;BMP180;58451;51.550;7.208;2023-03-08T00:28:55;99279.20;;;1.00
70831;BMP180;58451;51.550;7.208;2023-03-08T00:30:27;99280.60;;;1.00
70831;BMP180;58451;51.550;7.208;2023-03-08T00:31:59;99280.00;;;1.00
70831;BMP180;58451;51.550;7.208;2023-03-08T00:33:33;99277.00;;;1.00
70831;BMP180;58451;51.550;7.208;2023-03-08T00:35:06;99269.80;;;1.00
70831;BMP180;58451;51.550;7.208;2023-03-08T00:36:38;99275.80;;;1.00
70831;BMP180;58451;51.550;7.208;2023-03-08T00:38:10;99273.00;;;1.00
70831;BMP180;58451;51.550;7.208;2023-03-08T00:39:42;99275.80;;;1.00
70831;BMP180;58451;51.550;7.208;2023-03-08T00:41:14;99270.20;;;1.00
70831;BMP180;58451;51.550;7.208;2023-03-08T00:42:46;99270.40;;;1.00
70831;BMP180;58451;51.550;7.208;2023-03-08T00:44:18;99271.00;;;1.00
70831;BMP180;58451;51.550;7.208;2023-03-08T00:45:49;99273.40;;;1.00
70831;BMP180;58451;51.550;7.208;2023-03-08T00:47:25;99273.80;;;1.02
70831;BMP180;58451;51.550;7.208;2023-03-08T00:48:56;99268.40;;;1.00
70831;BMP180;58451;51.550;7.208;2023-03-08T00:50:29;99280.40;;;1.00
70831;BMP180;58451;51.550;7.208;2023-03-08T00:52:01;99281.40;;;1.00
70831;BMP180;58451;51.550;7.208;2023-03-08T00:53:33;99283.40;;;1.00
70831;BMP180;58451;51.550;7.208;2023-03-08T00:55:06;99284.00;;;1.00
70831;BMP180;58451;51.550;7.208;2023-03-08T00:56:37;99283.80;;;1.00
70831;BMP180;58451;51.550;7.208;2023-03-08T00:58:09;99278.80;;;1.00
70831;BMP180;58451;51.550;7.208;2023-03-08T00:59:41;99277.60;;;1.00
70831;BMP180;58451;51.550;7.208;2023-03-08T01:01:17;99273.40;;;1.00
70831;BMP180;58451;51.550;7.208;2023-03-08T01:02:54;99269.60;;;1.00
70831;BMP180;58451;51.550;7.208;2023-03-08T01:04:26;99270.40;;;1.00
70831;BMP180;58451;51.550;7.208;2023-03-08T01:06:05;99265.60;;;1.00
70831;BMP180;58451;51.550;7.208;2023-03-08T01:07:37;99266.60;;;1.00
70831;BMP180;58451;51.550;7.208;2023-03-08T01:09:11;99266.60;;;1.00
70831;BMP180;58451;51.550;7.208;2023-03-08T01:11:01;99267.40;;;1.00
70831;BMP180;58451;51.550;7.208;2023-03-08T01:12:35;99268.80;;;1.00
70831;BMP180;58451;51.550;7.208;2023-03-08T01:14:06;99268.20;;;1.00
70831;BMP180;58451;51.550;7.208;2023-03-08T01:15:39;99266.60;;;1.00
70831;BMP180;58451;51.550;7.208;2023-03-08T01:17:11;99271.60;;;1.00
70831;BMP180;58451;51.550;7.208;2023-03-08T01:18:43;99268.80;;;1.00
70831;BMP180;58451;51.550;7.208;2023-03-08T01:20:16;99261.60;;;0.90
70831;BMP180;58451;51.550;7.208;2023-03-08T01:21:48;99258.80;;;0.90
70831;BMP180;58451;51.550;7.208;2023-03-08T01:23:21;99256.80;;;0.90
70831;BMP180;58451;51.550;7.208;2023-03-08T01:24:52;99261.20;;;1.00
70831;BMP180;58451;51.550;7.208;2023-03-08T01:26:26;99258.80;;;1.00
70831;BMP180;58451;51.550;7.208;2023-03-08T01:28:01;99254.20;;;1.00
70831;BMP180;58451;51.550;7.208;2023-03-08T01:29:32;99253.80;;;1.00
70831;BMP180;58451;51.550;7.208;2023-03-08T01:31:17;99253.60;;;1.00
70831;BMP180;58451;51.550;7.208;2023-03-08T01:32:50;99247.80;;;1.00
70831;BMP180;58451;51.550;7.208;2023-03-08T01:34:22;99243.40;;;1.00
70831;BMP180;58451;51.550;7.208;2023-03-08T01:35:53;99250.80;;;1.00
70831;BMP180;58451;51.550;7.208;2023-03-08T01:37:25;99247.20;;;1.00
70831;BMP180;58451;51.550;7.208;2023-03-08T01:39:00;99247.20;;;1.00
70831;BMP180;58451;51.550;7.208;2023-03-08T01:40:32;99241.80;;;1.00
70831;BMP180;58451;51.550;7.208;2023-03-08T01:42:05;99241.00;;;1.00
70831;BMP180;58451;51.550;7.208;2023-03-08T01:43:39;99240.20;;;1.00
70831;BMP180;58451;51.550;7.208;2023-03-08T01:47:32;99234.80;;;1.00
70831;BMP180;58451;51.550;7.208;2023-03-08T01:49:27;99235.20;;;1.00
70831;BMP180;58451;51.550;7.208;2023-03-08T01:51:05;99231.40;;;1.00
70831;BMP180;58451;51.550;7.208;2023-03-08T01:52:47;99232.40;;;1.00
70831;BMP180;58451;51.550;7.208;2023-03-08T01:54:32;99228.60;;;1.00
70831;BMP180;58451;51.550;7.208;2023-03-08T01:56:09;99225.80;;;1.00
70831;BMP180;58451;51.550;7.208;2023-03-08T01:57:48;99222.40;;;1.00
70831;BMP180;58451;51.550;7.208;2023-03-08T01:59:22;99226.60;;;1.06
70831;BMP180;58451;51.550;7.208;2023-03-08T02:00:54;99226.80;;;1.06
70831;BMP180;58451;51.550;7.208;2023-03-08T02:02:39;99220.00;;;1.08
70831;BMP180;58451;51.550;7.208;2023-03-08T02:04:12;99213.20;;;1.06
70831;BMP180;58451;51.550;7.208;2023-03-08T02:05:43;99214.00;;;1.10
70831;BMP180;58451;51.550;7.208;2023-03-08T02:07:20;99208.00;;;1.10
70831;BMP180;58451;51.550;7.208;2023-03-08T02:08:53;99200.20;;;1.10
70831;BMP180;58451;51.550;7.208;2023-03-08T02:10:25;99200.00;;;1.10
70831;BMP180;58451;51.550;7.208;2023-03-08T02:12:00;99198.60;;;1.10
70831;BMP180;58451;51.550;7.208;2023-03-08T02:13:34;99197.60;;;1.10
70831;BMP180;58451;51.550;7.208;2023-03-08T02:15:11;99196.40;;;1.10
70831;BMP180;58451;51.550;7.208;2023-03-08T02:16:43;99194.60;;;1.10
70831;BMP180;58451;51.550;7.208;2023-03-08T02:18:15;99192.20;;;1.10
70831;BMP180;58451;51.550;7.208;2023-03-08T02:19:55;99185.80;;;1.10
70831;BMP180;58451;51.550;7.208;2023-03-08T02:21:30;99185.20;;;1.10
70831;BMP180;58451;51.550;7.208;2023-03-08T02:23:17;99179.20;;;1.10
70831;BMP180;58451;51.550;7.208;2023-03-08T02:24:49;99179.20;;;1.10
70831;BMP180;58451;51.550;7.208;2023-03-08T02:26:22;99176.80;;;1.10
70831;BMP180;58451;51.550;7.208;2023-03-08T02:27:54;99179.60;;;1.14
70831;BMP180;58451;51.550;7.208;2023-03-08T02:29:26;99174.60;;;1.12
70831;BMP180;58451;51.550;7.208;2023-03-08T02:30:58;99168.60;;;1.12
70831;BMP180;58451;51.550;7.208;2023-03-08T02:32:30;99169.00;;;1.18
70831;BMP180;58451;51.550;7.208;2023-03-08T02:34:04;99163.20;;;1.20
70831;BMP180;58451;51.550;7.208;2023-03-08T02:35:35;99158.40;;;1.18
70831;BMP180;58451;51.550;7.208;2023-03-08T02:37:09;99160.00;;;1.20
70831;BMP180;58451;51.550;7.208;2023-03-08T02:38:41;99161.00;;;1.18
70831;BMP180;58451;51.550;7.208;2023-03-08T02:40:13;99164.40;;;1.20
70831;BMP180;58451;51.550;7.208;2023-03-08T02:41:45;99164.80;;;1.20
70831;BMP180;58451;51.550;7.208;2023-03-08T02:43:18;99157.00;;;1.20
70831;BMP180;58451;51.550;7.208;2023-03-08T02:44:50;99159.80;;;1.20
70831;BMP180;58451;51.550;7.208;2023-03-08T02:46:22;99156.20;;;1.20
70831;BMP180;58451;51.550;7.208;2023-03-08T02:47:54;99160.40;;;1.20
70831;BMP180;58451;51.550;7.208;2023-03-08T02:49:26;99168.40;;;1.20
70831;BMP180;58451;51.550;7.208;2023-03-08T02:50:58;99171.40;;;1.20
70831;BMP180;58451;51.550;7.208;2023-03-08T02:52:31;99167.40;;;1.20
70831;BMP180;58451;51.550;7.208;2023-03-08T02:54:03;99168.20;;;1.30
70831;BMP180;58451;51.550;7.208;2023-03-08T02:55:35;99165.60;;;1.30
70831;BMP180;58451;51.550;7.208;2023-03-08T02:57:11;99157.80;;;1.30
70831;BMP180;58451;51.550;7.208;2023-03-08T02:58:43;99162.40;;;1.30
70831;BMP180;58451;51.550;7.208;2023-03-08T03:00:15;99157.80;;;1.30
70831;BMP180;58451;51.550;7.208;2023-03-08T03:01:47;99155.40;;;1.30
70831;BMP180;58451;51.550;7.208;2023-03-08T03:03:18;99154.20;;;1.30
70831;BMP180;58451;51.550;7.208;2023-03-08T03:04:53;99156.80;;;1.30
70831;BMP180;58451;51.550;7.208;2023-03-08T03:06:25;99153.40;;;1.30
70831;BMP180;58451;51.550;7.208;2023-03-08T03:07:59;99147.00;;;1.30
70831;BMP180;58451;51.550;7.208;2023-03-08T03:09:34;99152.40;;;1.30
70831;BMP180;58451;51.550;7.208;2023-03-08T03:11:12;99151.00;;;1.30
70831;BMP180;58451;51.550;7.208;2023-03-08T03:12:44;99148.00;;;1.30
70831;BMP180;58451;51.550;7.208;2023-03-08T03:14:19;99152.20;;;1.30
70831;BMP180;58451;51.550;7.208;2023-03-08T03:15:51;99145.20;;;1.30
70831;BMP180;58451;51.550;7.208;2023-03-08T03:17:23;99145.40;;;1.30
70831;BMP180;58451;51.550;7.208;2023-03-08T03:18:55;99144.20;;;1.30
70831;BMP180;58451;51.550;7.208;2023-03-08T03:20:27;99135.40;;;1.30
70831;BMP180;58451;51.550;7.208;2023-03-08T03:21:59;99142.20;;;1.32
70831;BMP180;58451;51.550;7.208;2023-03-08T03:23:32;99136.20;;;1.30
70831;BMP180;58451;51.550;7.208;2023-03-08T03:25:05;99140.80;;;1.34
70831;BMP180;58451;51.550;7.208;2023-03-08T03:26:38;99146.40;;;1.30
70831;BMP180;58451;51.550;7.208;2023-03-08T03:28:10;99148.80;;;1.30
70831;BMP180;58451;51.550;7.208;2023-03-08T03:29:41;99146.00;;;1.30
70831;BMP180;58451;51.550;7.208;2023-03-08T03:31:20;99146.00;;;1.30
70831;BMP180;58451;51.550;7.208;2023-03-08T03:32:53;99143.80;;;1.30
70831;BMP180;58451;51.550;7.208;2023-03-08T03:34:29;99145.60;;;1.30
70831;BMP180;58451;51.550;7.208;2023-03-08T03:36:02;99142.00;;;1.30
70831;BMP180;58451;51.550;7.208;2023-03-08T03:37:37;99137.40;;;1.30
70831;BMP180;58451;51.550;7.208;2023-03-08T03:39:10;99135.60;;;1.30
70831;BMP180;58451;51.550;7.208;2023-03-08T03:40:42;99134.00;;;1.30
70831;BMP180;58451;51.550;7.208;2023-03-08T03:42:16;99127.00;;;1.30
70831;BMP180;58451;51.550;7.208;2023-03-08T03:43:57;99131.00;;;1.30
70831;BMP180;58451;51.550;7.208;2023-03-08T03:45:29;99133.60;;;1.30
70831;BMP180;58451;51.550;7.208;2023-03-08T03:47:01;99129.60;;;1.32
70831;BMP180;58451;51.550;7.208;2023-03-08T03:48:35;99131.20;;;1.30
70831;BMP180;58451;51.550;7.208;2023-03-08T03:50:08;99131.60;;;1.30
70831;BMP180;58451;51.550;7.208;2023-03-08T03:52:01;99128.60;;;1.30
70831;BMP180;58451;51.550;7.208;2023-03-08T03:53:40;99130.40;;;1.30
70831;BMP180;58451;51.550;7.208;2023-03-08T03:55:12;99129.00;;;1.30
70831;BMP180;58451;51.550;7.208;2023-03-08T03:56:44;99130.20;;;1.30
70831;BMP180;58451;51.550;7.208;2023-03-08T03:58:16;99129.60;;;1.30
70831;BMP180;58451;51.550;7.208;2023-03-08T03:59:48;99127.80;;;1.30
70831;BMP180;58451;51.550;7.208;2023-03-08T04:01:28;99118.80;;;1.30
70831;BMP180;58451;51.550;7.208;2023-03-08T04:03:21;99114.00;;;1.30
70831;BMP180;58451;51.550;7.208;2023-03-08T04:04:54;99115.80;;;1.30
70831;BMP180;58451;51.550;7.208;2023-03-08T04:06:31;99118.80;;;1.30
70831;BMP180;58451;51.550;7.208;2023-03-08T04:08:03;99116.00;;;1.30
70831;BMP180;58451;51.550;7.208;2023-03-08T04:09:36;99113.60;;;1.28
70831;BMP180;58451;51.550;7.208;2023-03-08T04:11:19;99114.00;;;1.26
70831;BMP180;58451;51.550;7.208;2023-03-08T04:12:52;99109.80;;;1.30
70831;BMP180;58451;51.550;7.208;2023-03-08T04:14:26;99107.80;;;1.30
70831;BMP180;58451;51.550;7.208;2023-03-08T04:15:57;99104.40;;;1.30
70831;BMP180;58451;51.550;7.208;2023-03-08T04:17:29;99096.40;;;1.30
70831;BMP180;58451;51.550;7.208;2023-03-08T04:19:06;99088.20;;;1.30
70831;BMP180;58451;51.550;7.208;2023-03-08T04:20:38;99081.20;;;1.30
70831;BMP180;58451;51.550;7.208;2023-03-08T04:22:10;99074.40;;;1.30
70831;BMP180;58451;51.550;7.208;2023-03-08T04:23:49;99077.60;;;1.30
70831;BMP180;58451;51.550;7.208;2023-03-08T04:25:21;99077.60;;;1.30
70831;BMP180;58451;51.550;7.208;2023-03-08T04:26:57;99072.80;;;1.30
70831;BMP180;58451;51.550;7.208;2023-03-08T04:28:30;99073.80;;;1.30
70831;BMP180;58451;51.550;7.208;2023-03-08T04:30:03;99074.60;;;1.30
70831;BMP180;58451;51.550;7.208;2023-03-08T04:31:35;99072.60;;;1.30
70831;BMP180;58451;51.550;7.208;2023-03-08T04:33:10;99068.60;;;1.30
70831;BMP180;58451;51.550;7.208;2023-03-08T04:34:47;99061.40;;;1.30
70831;BMP180;58451;51.550;7.208;2023-03-08T04:36:22;99063.40;;;1.30
70831;BMP180;58451;51.550;7.208;2023-03-08T04:37:53;99065.60;;;1.30
70831;BMP180;58451;51.550;7.208;2023-03-08T04:39:27;99059.80;;;1.30
70831;BMP180;58451;51.550;7.208;2023-03-08T04:41:00;99064.40;;;1.30
70831;BMP180;58451;51.550;7.208;2023-03-08T04:42:49;99057.40;;;1.30
70831;BMP180;58451;51.550;7.208;2023-03-08T04:44:23;99055.20;;;1.30
70831;BMP180;58451;51.550;7.208;2023-03-08T04:45:55;99056.60;;;1.30
70831;BMP180;58451;51.550;7.208;2023-03-08T04:47:27;99054.40;;;1.30
70831;BMP180;58451;51.550;7.208;2023-03-08T04:48:59;99050.80;;;1.30
70831;BMP180;58451;51.550;7.208;2023-03-08T04:50:34;99051.20;;;1.30
70831;BMP180;58451;51.550;7.208;2023-03-08T04:52:06;99053.20;;;1.30
70831;BMP180;58451;51.550;7.208;2023-03-08T04:53:41;99045.80;;;1.30
70831;BMP180;58451;51.550;7.208;2023-03-08T04:55:15;99039.60;;;1.30
70831;BMP180;58451;51.550;7.208;2023-03-08T04:56:48;99034.20;;;1.30
70831;BMP180;58451;51.550;7.208;2023-03-08T04:58:21;99037.60;;;1.30
70831;BMP180;58451;51.550;7.208;2023-03-08T04:59:53;99032.80;;;1.30
70831;BMP180;58451;51.550;7.208;2023-03-08T05:01:24;99029.40;;;1.30
70831;BMP180;58451;51.550;7.208;2023-03-08T05:02:56;99022.00;;;1.30
70831;BMP180;58451;51.550;7.208;2023-03-08T05:04:28;99015.00;;;1.30
70831;BMP180;58451;51.550;7.208;2023-03-08T05:06:00;99016.20;;;1.30
70831;BMP180;58451;51.550;7.208;2023-03-08T05:07:32;99015.60;;;1.30
70831;BMP180;58451;51.550;7.208;2023-03-08T05:09:05;99012.20;;;1.30
70831;BMP180;58451;51.550;7.208;2023-03-08T05:10:37;99007.60;;;1.30
70831;BMP180;58451;51.550;7.208;2023-03-08T05:12:10;99011.40;;;1.30
70831;BMP180;58451;51.550;7.208;2023-03-08T05:13:48;99008.20;;;1.30
70831;BMP180;58451;51.550;7.208;2023-03-08T05:15:21;99008.80;;;1.30
70831;BMP180;58451;51.550;7.208;2023-03-08T05:16:56;99010.60;;;1.30
70831;BMP180;58451;51.550;7.208;2023-03-08T05:18:28;99004.40;;;1.30
70831;BMP180;58451;51.550;7.208;2023-03-08T05:20:00;99005.20;;;1.30
70831;BMP180;58451;51.550;7.208;2023-03-08T05:21:36;99003.20;;;1.30
70831;BMP180;58451;51.550;7.208;2023-03-08T05:23:10;99001.60;;;1.30
70831;BMP180;58451;51.550;7.208;2023-03-08T05:24:44;99004.80;;;1.20
70831;BMP180;58451;51.550;7.208;2023-03-08T05:26:17;98995.80;;;1.20
70831;BMP180;58451;51.550;7.208;2023-03-08T05:27:50;98996.20;;;1.20
70831;BMP180;58451;51.550;7.208;2023-03-08T05:29:24;98997.60;;;1.20
70831;BMP180;58451;51.550;7.208;2023-03-08T05:31:15;98997.80;;;1.20
70831;BMP180;58451;51.550;7.208;2023-03-08T05:32:47;98995.00;;;1.20
70831;BMP180;58451;51.550;7.208;2023-03-08T05:34:19;98990.80;;;1.20
70831;BMP180;58451;51.550;7.208;2023-03-08T05:35:53;98993.20;;;1.20
70831;BMP180;58451;51.550;7.208;2023-03-08T05:37:25;98989.00;;;1.20
70831;BMP180;58451;51.550;7.208;2023-03-08T05:38:58;98983.80;;;1.20
70831;BMP180;58451;51.550;7.208;2023-03-08T05:40:36;98984.00;;;1.20
70831;BMP180;58451;51.550;7.208;2023-03-08T05:42:10;98981.80;;;1.20
70831;BMP180;58451;51.550;7.208;2023-03-08T05:43:44;98979.60;;;1.22
70831;BMP180;58451;51.550;7.208;2023-03-08T05:45:16;98973.00;;;1.20
70831;BMP180;58451;51.550;7.208;2023-03-08T05:46:49;98968.20;;;1.20
70831;BMP180;58451;51.550;7.208;2023-03-08T05:48:22;98962.80;;;1.20
70831;BMP180;58451;51.550;7.208;2023-03-08T05:49:54;98961.60;;;1.20
70831;BMP180;58451;51.550;7.208;2023-03-08T05:51:26;98962.20;;;1.20
70831;BMP180;58451;51.550;7.208;2023-03-08T05:52:58;98958.80;;;1.20
70831;BMP180;58451;51.550;7.208;2023-03-08T05:54:31;98955.20;;;1.20
70831;BMP180;58451;51.550;7.208;2023-03-08T05:56:16;98946.40;;;1.20
70831;BMP180;58451;51.550;7.208;2023-03-08T05:58:04;98945.60;;;1.20
70831;BMP180;58451;51.550;7.208;2023-03-08T05:59:36;98939.00;;;1.20
70831;BMP180;58451;51.550;7.208;2023-03-08T06:01:20;98942.40;;;1.20
70831;BMP180;58451;51.550;7.208;2023-03-08T06:02:53;98936.40;;;1.20
70831;BMP180;58451;51.550;7.208;2023-03-08T06:04:25;98935.80;;;1.20
70831;BMP180;58451;51.550;7.208;2023-03-08T06:05:57;98935.80;;;1.20
70831;BMP180;58451;51.550;7.208;2023-03-08T06:07:29;98932.60;;;1.14
70831;BMP180;58451;51.550;7.208;2023-03-08T06:09:07;98930.60;;;1.14
70831;BMP180;58451;51.550;7.208;2023-03-08T06:10:41;98927.80;;;1.10
70831;BMP180;58451;51.550;7.208;2023-03-08T06:12:13;98923.00;;;1.10
70831;BMP180;58451;51.550;7.208;2023-03-08T06:13:45;98922.80;;;1.18
70831;BMP180;58451;51.550;7.208;2023-03-08T06:15:17;98916.60;;;1.12
70831;BMP180;58451;51.550;7.208;2023-03-08T06:16:49;98919.00;;;1.10
70831;BMP180;58451;51.550;7.208;2023-03-08T06:18:23;98914.40;;;1.10
70831;BMP180;58451;51.550;7.208;2023-03-08T06:19:55;98919.60;;;1.10
70831;BMP180;58451;51.550;7.208;2023-03-08T06:21:27;98920.60;;;1.10
70831;BMP180;58451;51.550;7.208;2023-03-08T06:23:03;98914.80;;;1.10
70831;BMP180;58451;51.550;7.208;2023-03-08T06:24:35;98911.00;;;1.10
70831;BMP180;58451;51.550;7.208;2023-03-08T06:26:10;98909.20;;;1.10
70831;BMP180;58451;51.550;7.208;2023-03-08T06:27:42;98906.20;;;1.10
70831;BMP180;58451;51.550;7.208;2023-03-08T06:29:26;98899.60;;;1.10
70831;BMP180;58451;51.550;7.208;2023-03-08T06:30:58;98900.60;;;1.10
70831;BMP180;58451;51.550;7.208;2023-03-08T06:32:30;98898.00;;;1.06
70831;BMP180;58451;51.550;7.208;2023-03-08T06:34:03;98897.60;;;1.02
70831;BMP180;58451;51.550;7.208;2023-03-08T06:35:35;98896.60;;;1.00
70831;BMP180;58451;51.550;7.208;2023-03-08T06:37:08;98893.60;;;1.00
70831;BMP180;58451;51.550;7.208;2023-03-08T06:38:41;98894.00;;;1.00
70831;BMP180;58451;51.550;7.208;2023-03-08T06:40:13;98891.80;;;1.00
70831;BMP180;58451;51.550;7.208;2023-03-08T06:41:45;98881.00;;;1.00
70831;BMP180;58451;51.550;7.208;2023-03-08T06:43:18;98879.80;;;0.92
70831;BMP180;58451;51.550;7.208;2023-03-08T06:44:50;98873.60;;;0.90
70831;BMP180;58451;51.550;7.208;2023-03-08T06:46:22;98873.00;;;0.94
70831;BMP180;58451;51.550;7.208;2023-03-08T06:47:54;98878.00;;;1.00
70831;BMP180;58451;51.550;7.208;2023-03-08T06:49:25;98879.40;;;1.00
70831;BMP180;58451;51.550;7.208;2023-03-08T06:50:57;98874.20;;;1.00
70831;BMP180;58451;51.550;7.208;2023-03-08T06:52:29;98872.60;;;1.00
70831;BMP180;58451;51.550;7.208;2023-03-08T06:54:08;98873.60;;;1.00
70831;BMP180;58451;51.550;7.208;2023-03-08T06:55:40;98872.60;;;1.00
70831;BMP180;58451;51.550;7.208;2023-03-08T06:57:12;98869.80;;;1.00
70831;BMP180;58451;51.550;7.208;2023-03-08T06:58:44;98866.60;;;1.00
70831;BMP180;58451;51.550;7.208;2023-03-08T07:00:17;98864.80;;;1.00
70831;BMP180;58451;51.550;7.208;2023-03-08T07:01:49;98863.20;;;1.00
70831;BMP180;58451;51.550;7.208;2023-03-08T07:03:21;98861.80;;;1.00
70831;BMP180;58451;51.550;7.208;2023-03-08T07:04:53;98869.20;;;1.00
70831;BMP180;58451;51.550;7.208;2023-03-08T07:06:25;98862.60;;;1.00
70831;BMP180;58451;51.550;7.208;2023-03-08T07:07:57;98861.80;;;1.00
70831;BMP180;58451;51.550;7.208;2023-03-08T07:09:29;98861.00;;;1.00
70831;BMP180;58451;51.550;7.208;2023-03-08T07:11:01;98867.60;;;1.00
70831;BMP180;58451;51.550;7.208;2023-03-08T07:12:33;98860.40;;;1.00
70831;BMP180;58451;51.550;7.208;2023-03-08T07:14:07;98859.00;;;1.00
70831;BMP180;58451;51.550;7.208;2023-03-08T07:15:39;98862.60;;;1.00
70831;BMP180;58451;51.550;7.208;2023-03-08T07:17:11;98860.40;;;0.94
70831;BMP180;58451;51.550;7.208;2023-03-08T07:18:43;98857.20;;;0.90
70831;BMP180;58451;51.550;7.208;2023-03-08T07:20:19;98859.60;;;0.80
70831;BMP180;58451;51.550;7.208;2023-03-08T07:21:51;98854.00;;;0.80
70831;BMP180;58451;51.550;7.208;2023-03-08T07:23:23;98850.60;;;0.80
70831;BMP180;58451;51.550;7.208;2023-03-08T07:24:55;98851.80;;;0.70
70831;BMP180;58451;51.550;7.208;2023-03-08T07:26:27;98852.20;;;0.80
70831;BMP180;58451;51.550;7.208;2023-03-08T07:27:58;98849.60;;;0.80
70831;BMP180;58451;51.550;7.208;2023-03-08T07:29:30;98846.80;;;0.80
70831;BMP180;58451;51.550;7.208;2023-03-08T07:31:02;98840.40;;;0.72
70831;BMP180;58451;51.550;7.208;2023-03-08T07:32:35;98840.40;;;0.76
70831;BMP180;58451;51.550;7.208;2023-03-08T07:34:07;98840.40;;;0.72
70831;BMP180;58451;51.550;7.208;2023-03-08T07:35:39;98840.20;;;0.70
70831;BMP180;58451;51.550;7.208;2023-03-08T07:37:13;98840.60;;;0.70
70831;BMP180;58451;51.550;7.208;2023-03-08T07:38:45;98836.60;;;0.70
70831;BMP180;58451;51.550;7.208;2023-03-08T07:40:18;98841.40;;;0.70
70831;BMP180;58451;51.550;7.208;2023-03-08T07:41:49;98839.60;;;0.70
70831;BMP180;58451;51.550;7.208;2023-03-08T07:43:22;98836.40;;;0.70
70831;BMP180;58451;51.550;7.208;2023-03-08T07:45:02;98833.60;;;0.60
70831;BMP180;58451;51.550;7.208;2023-03-08T07:46:34;98833.20;;;0.60
70831;BMP180;58451;51.550;7.208;2023-03-08T07:48:06;98829.00;;;0.60
70831;BMP180;58451;51.550;7.208;2023-03-08T07:49:38;98826.80;;;0.60
70831;BMP180;58451;51.550;7.208;2023-03-08T07:51:10;98829.00;;;0.60
70831;BMP180;58451;51.550;7.208;2023-03-08T07:52:43;98829.80;;;0.66
70831;BMP180;58451;51.550;7.208;2023-03-08T07:54:14;98831.00;;;0.70
70831;BMP180;58451;51.550;7.208;2023-03-08T07:55:46;98838.20;;;0.70
70831;BMP180;58451;51.550;7.208;2023-03-08T07:57:18;98831.20;;;0.70
70831;BMP180;58451;51.550;7.208;2023-03-08T07:58:50;98832.00;;;0.62
70831;BMP180;58451;51.550;7.208;2023-03-08T08:00:22;98832.40;;;0.70
70831;BMP180;58451;51.550;7.208;2023-03-08T08:01:54;98831.60;;;0.66
70831;BMP180;58451;51.550;7.208;2023-03-08T08:03:28;98828.20;;;0.60
70831;BMP180;58451;51.550;7.208;2023-03-08T08:05:01;98832.00;;;0.60
70831;BMP180;58451;51.550;7.208;2023-03-08T08:06:35;98826.00;;;0.50
70831;BMP180;58451;51.550;7.208;2023-03-08T08:08:07;98824.00;;;0.50
70831;BMP180;58451;51.550;7.208;2023-03-08T08:09:39;98820.00;;;0.50
70831;BMP180;58451;51.550;7.208;2023-03-08T08:11:14;98818.80;;;0.50
70831;BMP180;58451;51.550;7.208;2023-03-08T08:12:46;98818.00;;;0.50
70831;BMP180;58451;51.550;7.208;2023-03-08T08:14:18;98807.80;;;0.50
70831;BMP180;58451;51.550;7.208;2023-03-08T08:16:00;98809.20;;;0.50
70831;BMP180;58451;51.550;7.208;2023-03-08T08:17:33;98809.60;;;0.50
70831;BMP180;58451;51.550;7.208;2023-03-08T08:19:04;98805.80;;;0.48
70831;BMP180;58451;51.550;7.208;2023-03-08T08:20:37;98800.20;;;0.50
70831;BMP180;58451;51.550;7.208;2023-03-08T08:22:09;98798.20;;;0.40
70831;BMP180;58451;51.550;7.208;2023-03-08T08:23:41;98798.80;;;0.42
70831;BMP180;58451;51.550;7.208;2023-03-08T08:25:13;98797.00;;;0.40
70831;BMP180;58451;51.550;7.208;2023-03-08T08:26:45;98792.60;;;0.50
70831;BMP180;58451;51.550;7.208;2023-03-08T08:28:16;98788.60;;;0.50
70831;BMP180;58451;51.550;7.208;2023-03-08T08:29:49;98783.80;;;0.50
70831;BMP180;58451;51.550;7.208;2023-03-08T08:31:26;98781.60;;;0.50
70831;BMP180;58451;51.550;7.208;2023-03-08T08:32:59;98777.60;;;0.58
70831;BMP180;58451;51.550;7.208;2023-03-08T08:34:33;98773.60;;;0.50
70831;BMP180;58451;51.550;7.208;2023-03-08T08:36:10;98773.40;;;0.52
70831;BMP180;58451;51.550;7.208;2023-03-08T08:37:42;98772.20;;;0.50
70831;BMP180;58451;51.550;7.208;2023-03-08T08:39:14;98769.80;;;0.60
70831;BMP180;58451;51.550;7.208;2023-03-08T08:40:46;98769.80;;;0.60
70831;BMP180;58451;51.550;7.208;2023-03-08T08:42:17;98765.40;;;0.60
70831;BMP180;58451;51.550;7.208;2023-03-08T08:43:50;98759.20;;;0.60
70831;BMP180;58451;51.550;7.208;2023-03-08T08:45:21;98760.40;;;0.60
70831;BMP180;58451;51.550;7.208;2023-03-08T08:46:53;98754.60;;;0.60
70831;BMP180;58451;51.550;7.208;2023-03-08T08:48:27;98763.20;;;0.60
70831;BMP180;58451;51.550;7.208;2023-03-08T08:49:59;98756.00;;;0.60
70831;BMP180;58451;51.550;7.208;2023-03-08T08:51:31;98753.80;;;0.60
70831;BMP180;58451;51.550;7.208;2023-03-08T08:53:03;98751.00;;;0.60
70831;BMP180;58451;51.550;7.208;2023-03-08T08:54:35;98745.40;;;0.60
70831;BMP180;58451;51.550;7.208;2023-03-08T08:56:12;98748.00;;;0.60
70831;BMP180;58451;51.550;7.208;2023-03-08T08:57:57;98745.60;;;0.54
70831;BMP180;58451;51.550;7.208;2023-03-08T08:59:29;98739.80;;;0.50
70831;BMP180;58451;51.550;7.208;2023-03-08T09:01:01;98733.20;;;0.58
70831;BMP180;58451;51.550;7.208;2023-03-08T09:02:33;98735.20;;;0.60
70831;BMP180;58451;51.550;7.208;2023-03-08T09:04:05;98733.80;;;0.60
70831;BMP180;58451;51.550;7.208;2023-03-08T09:05:41;98729.60;;;0.62
70831;BMP180;58451;51.550;7.208;2023-03-08T09:07:13;98729.40;;;0.70
70831;BMP180;58451;51.550;7.208;2023-03-08T09:08:54;98727.40;;;0.70
70831;BMP180;58451;51.550;7.208;2023-03-08T09:10:29;98734.20;;;0.70